BAW139 EGLL-VABB
Flight info
| Callsign | BAW139 |
|---|---|
| Flight time | N/A |
| Altitude | 35000 |
| Route | DET1J DET L6 DVR UL9 KONAN DCT KOK DCT KOMOB DCT PITES DCT BABEG DCT KUMOM DCT VEKEN DCT ELTIB DCT AKIKA DCT MAVAR DCT BITLA UN132 KEA UL607 PAXIS L607 NABSI P557 OBRAN L321 REXUM M872 BOPOB/N0488F370 M872 PMA Y214 RAPMA DCT MEVDO DCT ALROK DCT DEBIN DCT MIDGU M440 TULBU N881 AMBOS M700 PARAR/N0488F390 N571 SUGID KETOR2A |
| Aircraft | B77W/H-SDE1E2E3FGHIJ2J3J4J5M1RWXY/LB1D1 |
Departure
| Time | 2026-05-04 19:36 |
|---|---|
| Airport | London Heathrow Airport (EGLL) |
Arrival
| Time | N/A |
|---|---|
| Airport | Chhatrapati Shivaji Maharaj International Airport (VABB) |
| Time | Latitude | Longitude | Altitude | Speed | Heading |
|---|---|---|---|---|---|
| 2026-05-04 19:01 | 51.47220 | -0.47729 | 96 ft | 0 kts | 89° |
| 2026-05-04 19:22 | 51.47220 | -0.47735 | 96 ft | 2 kts | 89° |
| 2026-05-04 19:22 | 51.47220 | -0.47765 | 92 ft | 3 kts | 89° |
| 2026-05-04 19:22 | 51.47220 | -0.47797 | 93 ft | 2 kts | 89° |
| 2026-05-04 19:23 | 51.47220 | -0.47824 | 95 ft | 3 kts | 108° |
| 2026-05-04 19:23 | 51.47227 | -0.47847 | 95 ft | 3 kts | 134° |
| 2026-05-04 19:23 | 51.47240 | -0.47864 | 93 ft | 3 kts | 157° |
| 2026-05-04 19:23 | 51.47257 | -0.47873 | 91 ft | 3 kts | 174° |
| 2026-05-04 19:24 | 51.47269 | -0.47874 | 93 ft | 2 kts | 179° |
| 2026-05-04 19:24 | 51.47288 | -0.47874 | 93 ft | 3 kts | 179° |
| 2026-05-04 19:24 | 51.47291 | -0.47874 | 93 ft | 0 kts | 179° |
| 2026-05-04 19:28 | 51.47290 | -0.47874 | 93 ft | 0 kts | 179° |
| 2026-05-04 19:29 | 51.47271 | -0.47874 | 93 ft | 8 kts | 179° |
| 2026-05-04 19:29 | 51.47202 | -0.47873 | 93 ft | 12 kts | 180° |
| 2026-05-04 19:29 | 51.47122 | -0.47873 | 91 ft | 12 kts | 179° |
| 2026-05-04 19:30 | 51.47040 | -0.47872 | 91 ft | 12 kts | 179° |
| 2026-05-04 19:30 | 51.46959 | -0.47871 | 91 ft | 12 kts | 179° |
| 2026-05-04 19:30 | 51.46877 | -0.47870 | 91 ft | 12 kts | 179° |
| 2026-05-04 19:30 | 51.46796 | -0.47870 | 91 ft | 12 kts | 180° |
| 2026-05-04 19:31 | 51.46748 | -0.47933 | 96 ft | 10 kts | 253° |
| 2026-05-04 19:31 | 51.46743 | -0.48037 | 91 ft | 8 kts | 269° |
| 2026-05-04 19:31 | 51.46743 | -0.48072 | 91 ft | 0 kts | 269° |
| 2026-05-04 19:32 | 51.46743 | -0.48073 | 91 ft | 1 kts | 269° |
| 2026-05-04 19:32 | 51.46742 | -0.48117 | 92 ft | 6 kts | 269° |
| 2026-05-04 19:32 | 51.46733 | -0.48183 | 92 ft | 6 kts | 244° |
| 2026-05-04 19:32 | 51.46697 | -0.48216 | 95 ft | 7 kts | 181° |
| 2026-05-04 19:33 | 51.46641 | -0.48216 | 92 ft | 8 kts | 179° |
| 2026-05-04 19:33 | 51.46622 | -0.48215 | 92 ft | 0 kts | 180° |
| 2026-05-04 19:34 | 51.46578 | -0.48215 | 92 ft | 9 kts | 180° |
| 2026-05-04 19:34 | 51.46515 | -0.48213 | 93 ft | 9 kts | 174° |
| 2026-05-04 19:34 | 51.46480 | -0.48145 | 96 ft | 8 kts | 109° |
| 2026-05-04 19:34 | 51.46479 | -0.48108 | 95 ft | 0 kts | 88° |
| 2026-05-04 19:35 | 51.46479 | -0.48092 | 94 ft | 10 kts | 89° |
| 2026-05-04 19:35 | 51.46480 | -0.47669 | 90 ft | 76 kts | 90° |
| 2026-05-04 19:35 | 51.46485 | -0.46415 | 96 ft | 147 kts | 90° |
| 2026-05-04 19:35 | 51.46489 | -0.44487 | 282 ft | 185 kts | 88° |
| 2026-05-04 19:36 | 51.46427 | -0.42430 | 1087 ft | 185 kts | 95° |
| 2026-05-04 19:36 | 51.46101 | -0.40449 | 1857 ft | 189 kts | 116° |
| 2026-05-04 19:36 | 51.45138 | -0.38969 | 2096 ft | 210 kts | 142° |
| 2026-05-04 19:36 | 51.44183 | -0.37159 | 2206 ft | 224 kts | 104° |
| 2026-05-04 19:37 | 51.43890 | -0.34636 | 2407 ft | 240 kts | 100° |
| 2026-05-04 19:37 | 51.43467 | -0.32039 | 2996 ft | 248 kts | 105° |
| 2026-05-04 19:37 | 51.42934 | -0.29374 | 3666 ft | 254 kts | 107° |
| 2026-05-04 19:37 | 51.42447 | -0.26621 | 4292 ft | 260 kts | 101° |
| 2026-05-04 19:38 | 51.42086 | -0.23731 | 4920 ft | 268 kts | 100° |
| 2026-05-04 19:38 | 51.41715 | -0.20781 | 5587 ft | 271 kts | 101° |
| 2026-05-04 19:38 | 51.41321 | -0.17796 | 6114 ft | 276 kts | 102° |
| 2026-05-04 19:38 | 51.40914 | -0.14780 | 6851 ft | 278 kts | 102° |
| 2026-05-04 19:39 | 51.40622 | -0.12645 | 7352 ft | 279 kts | 102° |
| 2026-05-04 19:39 | 51.40202 | -0.09591 | 8030 ft | 282 kts | 102° |
| 2026-05-04 19:39 | 51.39783 | -0.06557 | 8692 ft | 285 kts | 103° |
| 2026-05-04 19:39 | 51.39344 | -0.03385 | 9371 ft | 289 kts | 103° |
| 2026-05-04 19:40 | 51.38907 | -0.00228 | 10037 ft | 292 kts | 103° |
| 2026-05-04 19:40 | 51.38460 | 0.02976 | 10507 ft | 303 kts | 103° |
| 2026-05-04 19:40 | 51.38180 | 0.04986 | 10605 ft | 316 kts | 103° |
| 2026-05-04 19:40 | 51.37683 | 0.08541 | 10790 ft | 338 kts | 103° |
| 2026-05-04 19:41 | 51.37152 | 0.12330 | 10974 ft | 361 kts | 103° |
| 2026-05-04 19:41 | 51.36589 | 0.16343 | 11473 ft | 373 kts | 103° |
| 2026-05-04 19:41 | 51.36013 | 0.20430 | 12210 ft | 379 kts | 102° |
| 2026-05-04 19:41 | 51.35429 | 0.24565 | 13133 ft | 382 kts | 102° |
| 2026-05-04 19:42 | 51.34845 | 0.28680 | 14021 ft | 386 kts | 102° |
| 2026-05-04 19:42 | 51.34247 | 0.32891 | 14746 ft | 391 kts | 103° |
| 2026-05-04 19:42 | 51.33642 | 0.37152 | 15515 ft | 396 kts | 103° |
| 2026-05-04 19:42 | 51.33026 | 0.41468 | 16287 ft | 400 kts | 103° |
| 2026-05-04 19:43 | 51.32401 | 0.45836 | 17012 ft | 406 kts | 103° |
| 2026-05-04 19:43 | 51.31763 | 0.50270 | 17764 ft | 411 kts | 104° |
| 2026-05-04 19:43 | 51.31117 | 0.54745 | 18482 ft | 416 kts | 104° |
| 2026-05-04 19:43 | 51.30462 | 0.59268 | 19143 ft | 420 kts | 104° |
| 2026-05-04 19:44 | 51.29736 | 0.63808 | 19820 ft | 422 kts | 107° |
| 2026-05-04 19:44 | 51.28916 | 0.68337 | 20487 ft | 426 kts | 108° |
| 2026-05-04 19:44 | 51.28059 | 0.72890 | 21115 ft | 431 kts | 108° |
| 2026-05-04 19:44 | 51.27189 | 0.77487 | 21735 ft | 435 kts | 108° |
| 2026-05-04 19:45 | 51.26314 | 0.82148 | 22359 ft | 439 kts | 108° |
| 2026-05-04 19:45 | 51.25442 | 0.86837 | 22971 ft | 443 kts | 108° |
| 2026-05-04 19:45 | 51.24563 | 0.91588 | 23563 ft | 448 kts | 108° |
| 2026-05-04 19:45 | 51.23676 | 0.96384 | 24058 ft | 452 kts | 108° |
| 2026-05-04 19:46 | 51.22796 | 1.01141 | 24562 ft | 455 kts | 108° |
| 2026-05-04 19:46 | 51.21897 | 1.05993 | 25087 ft | 457 kts | 108° |
| 2026-05-04 19:46 | 51.20990 | 1.10875 | 25581 ft | 460 kts | 108° |
| 2026-05-04 19:46 | 51.20086 | 1.15726 | 26079 ft | 463 kts | 108° |
| 2026-05-04 19:47 | 51.19464 | 1.19058 | 26383 ft | 465 kts | 108° |
| 2026-05-04 19:47 | 51.18548 | 1.23955 | 26827 ft | 468 kts | 108° |
| 2026-05-04 19:47 | 51.17610 | 1.28948 | 27272 ft | 471 kts | 108° |
| 2026-05-04 19:47 | 51.16713 | 1.33994 | 27717 ft | 475 kts | 105° |
| 2026-05-04 19:48 | 51.16083 | 1.39176 | 28123 ft | 480 kts | 99° |
| 2026-05-04 19:48 | 51.15783 | 1.44497 | 28513 ft | 484 kts | 96° |
| 2026-05-04 19:48 | 51.15557 | 1.49860 | 28889 ft | 487 kts | 96° |
| 2026-05-04 19:48 | 51.15330 | 1.55265 | 29253 ft | 489 kts | 96° |
| 2026-05-04 19:49 | 51.15089 | 1.60685 | 29589 ft | 492 kts | 96° |
| 2026-05-04 19:49 | 51.14831 | 1.66132 | 29941 ft | 494 kts | 96° |
| 2026-05-04 19:49 | 51.14561 | 1.71608 | 30333 ft | 493 kts | 96° |
| 2026-05-04 19:49 | 51.14287 | 1.77041 | 30770 ft | 491 kts | 96° |
| 2026-05-04 19:50 | 51.14010 | 1.82463 | 31197 ft | 490 kts | 96° |
| 2026-05-04 19:50 | 51.13735 | 1.87802 | 31593 ft | 489 kts | 96° |
| 2026-05-04 19:50 | 51.13456 | 1.93200 | 31961 ft | 488 kts | 96° |
| 2026-05-04 19:50 | 51.13175 | 1.98594 | 32312 ft | 487 kts | 96° |
| 2026-05-04 19:51 | 51.12891 | 2.03970 | 32691 ft | 486 kts | 97° |
| 2026-05-04 19:51 | 51.12606 | 2.09333 | 33046 ft | 486 kts | 97° |
| 2026-05-04 19:51 | 51.12318 | 2.14708 | 33387 ft | 485 kts | 97° |
| 2026-05-04 19:51 | 51.12033 | 2.20002 | 33707 ft | 485 kts | 97° |
| 2026-05-04 19:52 | 51.11742 | 2.25348 | 34017 ft | 484 kts | 97° |
| 2026-05-04 19:52 | 51.11449 | 2.30690 | 34261 ft | 485 kts | 97° |
| 2026-05-04 19:52 | 51.11153 | 2.36046 | 34469 ft | 485 kts | 97° |
| 2026-05-04 19:52 | 51.10855 | 2.41394 | 34672 ft | 486 kts | 97° |
| 2026-05-04 19:53 | 51.10555 | 2.46752 | 34882 ft | 487 kts | 97° |
| 2026-05-04 19:53 | 51.09932 | 2.57518 | 34977 ft | 488 kts | 99° |
| 2026-05-04 19:54 | 51.08345 | 2.67923 | 34995 ft | 483 kts | 112° |
| 2026-05-04 19:54 | 51.05510 | 2.77537 | 34996 ft | 479 kts | 121° |
| 2026-05-04 19:55 | 51.02348 | 2.86822 | 34993 ft | 480 kts | 121° |
| 2026-05-04 19:55 | 50.99170 | 2.96183 | 34993 ft | 481 kts | 120° |
| 2026-05-04 19:56 | 50.96017 | 3.05541 | 34991 ft | 481 kts | 120° |
| 2026-05-04 19:56 | 50.92856 | 3.14928 | 34991 ft | 482 kts | 120° |
| 2026-05-04 19:57 | 50.89692 | 3.24296 | 34980 ft | 482 kts | 121° |
| 2026-05-04 19:57 | 50.86540 | 3.33587 | 34983 ft | 481 kts | 121° |
| 2026-05-04 19:58 | 50.83359 | 3.42928 | 34976 ft | 481 kts | 121° |
| 2026-05-04 19:58 | 50.80179 | 3.52228 | 34977 ft | 480 kts | 121° |
| 2026-05-04 19:59 | 50.76993 | 3.61515 | 34974 ft | 480 kts | 121° |
| 2026-05-04 19:59 | 50.73806 | 3.70769 | 34977 ft | 480 kts | 121° |
| 2026-05-04 20:00 | 50.70627 | 3.79964 | 34968 ft | 479 kts | 122° |
| 2026-05-04 20:00 | 50.67418 | 3.89214 | 34972 ft | 479 kts | 122° |
| 2026-05-04 20:01 | 50.64205 | 3.98444 | 34963 ft | 480 kts | 122° |
| 2026-05-04 20:01 | 50.61007 | 4.07594 | 34961 ft | 479 kts | 122° |
| 2026-05-04 20:02 | 50.57778 | 4.16803 | 34975 ft | 480 kts | 122° |
| 2026-05-04 20:02 | 50.54544 | 4.25989 | 34963 ft | 480 kts | 122° |
| 2026-05-04 20:03 | 50.51306 | 4.35159 | 34967 ft | 480 kts | 123° |
| 2026-05-04 20:03 | 50.48063 | 4.44306 | 34967 ft | 479 kts | 123° |
| 2026-05-04 20:04 | 50.44830 | 4.53393 | 34964 ft | 479 kts | 123° |
| 2026-05-04 20:04 | 50.41577 | 4.62504 | 34961 ft | 479 kts | 123° |
| 2026-05-04 20:05 | 50.38314 | 4.71613 | 34968 ft | 478 kts | 123° |
| 2026-05-04 20:05 | 50.35048 | 4.80696 | 34965 ft | 478 kts | 123° |
| 2026-05-04 20:06 | 50.31797 | 4.89705 | 34971 ft | 478 kts | 123° |
| 2026-05-04 20:06 | 50.28521 | 4.98752 | 34970 ft | 477 kts | 124° |
| 2026-05-04 20:07 | 50.25241 | 5.07778 | 34973 ft | 477 kts | 124° |
| 2026-05-04 20:07 | 50.21974 | 5.16739 | 34972 ft | 476 kts | 124° |
| 2026-05-04 20:08 | 50.18682 | 5.25739 | 34974 ft | 476 kts | 124° |
| 2026-05-04 20:08 | 50.15401 | 5.34677 | 34973 ft | 476 kts | 124° |
| 2026-05-04 20:09 | 50.12138 | 5.43658 | 34971 ft | 476 kts | 123° |
| 2026-05-04 20:09 | 50.08927 | 5.52712 | 34977 ft | 476 kts | 123° |
| 2026-05-04 20:10 | 50.05739 | 5.61690 | 34973 ft | 476 kts | 124° |
| 2026-05-04 20:10 | 50.02511 | 5.70712 | 34974 ft | 476 kts | 124° |
| 2026-05-04 20:11 | 49.99277 | 5.79701 | 34979 ft | 476 kts | 124° |
| 2026-05-04 20:11 | 49.96112 | 5.88466 | 34972 ft | 477 kts | 124° |
| 2026-05-04 20:12 | 49.92897 | 5.97343 | 34976 ft | 477 kts | 124° |
| 2026-05-04 20:12 | 49.89634 | 6.06321 | 34978 ft | 477 kts | 124° |
| 2026-05-04 20:13 | 49.88005 | 6.10796 | 34964 ft | 478 kts | 124° |